createdAt,value
2022-08-30T00:04:24.731Z,10.88
2022-08-30T00:09:09.717Z,10.98
2022-08-30T00:13:58.328Z,10.82
2022-08-30T00:18:43.776Z,11.63
2022-08-30T00:23:32.053Z,11.43
2022-08-30T00:28:17.719Z,10.80
2022-08-30T00:33:03.054Z,11.18
2022-08-30T00:37:48.055Z,10.40
2022-08-30T00:42:36.596Z,10.68
2022-08-30T00:47:22.336Z,11.55
2022-08-30T00:52:09.078Z,10.85
2022-08-30T00:56:55.710Z,11.00
2022-08-30T01:01:44.206Z,11.45
2022-08-30T01:06:32.730Z,11.80
2022-08-30T01:11:21.840Z,10.30
2022-08-30T01:16:08.252Z,11.30
2022-08-30T01:21:03.826Z,11.55
2022-08-30T01:25:53.956Z,11.23
2022-08-30T01:30:40.652Z,11.25
2022-08-30T01:35:26.001Z,11.63
2022-08-30T01:40:13.241Z,11.98
2022-08-30T01:45:00.978Z,11.50
2022-08-30T01:49:46.273Z,11.95
2022-08-30T01:54:35.927Z,11.80
2022-08-30T01:59:23.397Z,11.50
2022-08-30T02:04:14.650Z,10.98
2022-08-30T02:09:00.272Z,10.98
2022-08-30T02:13:46.653Z,11.25
2022-08-30T02:18:32.227Z,11.95
2022-08-30T02:23:20.504Z,11.48
2022-08-30T02:28:06.420Z,11.20
2022-08-30T02:32:51.467Z,10.95
2022-08-30T02:37:36.915Z,11.40
2022-08-30T02:42:24.507Z,10.65
2022-08-30T02:47:10.210Z,11.05
2022-08-30T02:51:55.578Z,10.55
2022-08-30T02:56:41.971Z,10.85
2022-08-30T03:01:29.690Z,11.30
2022-08-30T03:06:15.148Z,11.68
2022-08-30T03:11:00.228Z,10.80
2022-08-30T03:15:45.558Z,11.57
2022-08-30T03:20:35.291Z,11.13
2022-08-30T03:25:21.258Z,10.77
2022-08-30T03:30:08.082Z,10.77
2022-08-30T03:34:53.567Z,11.00
2022-08-30T03:39:41.340Z,10.15
2022-08-30T03:44:26.745Z,11.13
2022-08-30T03:49:13.017Z,11.05
2022-08-30T03:53:58.321Z,11.95
2022-08-30T03:58:46.069Z,10.93
2022-08-30T04:03:33.330Z,10.88
2022-08-30T04:08:18.316Z,11.40
2022-08-30T04:13:03.658Z,10.30
2022-08-30T04:17:51.617Z,10.48
2022-08-30T04:22:37.111Z,10.68
2022-08-30T04:27:22.352Z,9.82
2022-08-30T04:32:08.793Z,10.80
2022-08-30T04:36:56.546Z,10.57
2022-08-30T04:41:42.964Z,10.20
2022-08-30T04:46:28.118Z,10.80
2022-08-30T04:51:17.025Z,11.50
2022-08-30T04:56:05.398Z,10.60
2022-08-30T05:00:50.871Z,10.60
2022-08-30T05:05:45.810Z,10.90
2022-08-30T05:10:31.235Z,10.23
2022-08-30T05:15:19.493Z,10.18
2022-08-30T05:20:05.079Z,9.95
2022-08-30T05:24:50.238Z,9.43
2022-08-30T05:29:36.138Z,10.13
2022-08-30T05:34:23.792Z,9.23
2022-08-30T05:39:10.164Z,8.82
2022-08-30T05:43:56.548Z,10.00
2022-08-30T05:48:42.514Z,9.07
2022-08-30T05:53:30.190Z,10.05
2022-08-30T05:58:16.191Z,9.82
2022-08-30T06:03:02.587Z,9.35
2022-08-30T06:07:47.983Z,8.75
2022-08-30T06:12:35.833Z,8.77
2022-08-30T06:17:21.142Z,8.88
2022-08-30T06:22:06.415Z,8.35
2022-08-30T06:26:52.337Z,8.35
2022-08-30T06:31:40.084Z,6.93
2022-08-30T06:36:27.755Z,7.57
2022-08-30T06:41:14.998Z,7.70
2022-08-30T06:46:05.135Z,7.43
2022-08-30T06:50:56.874Z,6.88
2022-08-30T06:55:42.401Z,6.38
2022-08-30T07:00:27.932Z,6.25
2022-08-30T07:05:18.631Z,5.70
2022-08-30T07:10:08.637Z,5.10
2022-08-30T07:14:53.921Z,5.30
2022-08-30T07:19:39.111Z,6.20
2022-08-30T07:24:25.234Z,4.18
2022-08-30T07:29:13.404Z,5.00
2022-08-30T07:33:59.130Z,4.13
2022-08-30T07:38:44.345Z,4.07
2022-08-30T07:43:29.808Z,3.97
2022-08-30T07:48:17.558Z,3.85
2022-08-30T07:53:04.728Z,3.90
2022-08-30T07:57:51.923Z,3.85
2022-08-30T08:02:37.546Z,3.88
2022-08-30T08:07:25.289Z,4.18
2022-08-30T08:12:11.103Z,4.22
2022-08-30T08:16:56.164Z,4.50
2022-08-30T08:21:41.623Z,4.75
2022-08-30T08:26:29.286Z,5.72
2022-08-30T08:31:18.087Z,5.35
2022-08-30T08:36:05.185Z,5.55
2022-08-30T08:41:14.473Z,5.78
2022-08-30T08:46:09.180Z,5.22
2022-08-30T08:51:07.941Z,4.45
2022-08-30T08:55:55.596Z,5.00
2022-08-30T09:00:40.845Z,5.13
2022-08-30T09:05:31.445Z,5.22
2022-08-30T09:10:18.390Z,4.70
2022-08-30T09:15:14.890Z,4.63
2022-08-30T09:20:03.996Z,4.93
2022-08-30T09:24:54.433Z,4.75
2022-08-30T09:29:52.283Z,4.50
2022-08-30T09:34:38.460Z,4.38
2022-08-30T09:39:32.925Z,4.13
2022-08-30T09:44:24.025Z,4.30
2022-08-30T09:54:19.300Z,5.10
2022-08-30T09:59:14.598Z,4.57
2022-08-30T10:04:09.580Z,4.00
2022-08-30T10:09:05.259Z,4.40
2022-08-30T10:14:14.871Z,4.40
2022-08-30T10:19:11.973Z,4.53
2022-08-30T10:24:01.460Z,4.38
2022-08-30T10:28:50.791Z,4.45
2022-08-30T10:33:42.471Z,4.35
2022-08-30T10:38:35.567Z,4.60
2022-08-30T10:43:27.810Z,5.07
2022-08-30T10:48:20.858Z,5.40
2022-08-30T10:53:13.029Z,5.28
2022-08-30T10:58:06.290Z,4.75
2022-08-30T11:03:17.507Z,5.32
2022-08-30T11:08:20.237Z,5.80
2022-08-30T11:13:14.639Z,5.40
2022-08-30T11:18:03.497Z,5.03
2022-08-30T11:23:24.058Z,4.88
2022-08-30T11:28:12.521Z,5.05
2022-08-30T11:33:07.993Z,5.20
2022-08-30T11:37:54.961Z,5.68
2022-08-30T11:42:45.763Z,4.82
2022-08-30T11:47:47.742Z,5.57
2022-08-30T11:52:51.380Z,5.30
2022-08-30T11:57:49.926Z,5.15
2022-08-30T12:02:59.308Z,5.10
2022-08-30T12:08:01.004Z,4.97
2022-08-30T12:12:57.604Z,4.60
2022-08-30T12:18:15.254Z,4.18
2022-08-30T12:23:20.305Z,4.85
2022-08-30T12:28:18.668Z,4.97
2022-08-30T12:33:06.544Z,4.50
2022-08-30T12:38:01.515Z,5.10
2022-08-30T12:42:54.779Z,4.43
2022-08-30T12:47:46.951Z,4.63
2022-08-30T12:52:40.017Z,4.63
2022-08-30T12:57:40.606Z,4.70
2022-08-30T13:02:28.417Z,4.60
2022-08-30T13:07:14.430Z,4.80
2022-08-30T13:12:10.017Z,4.25
2022-08-30T13:17:09.130Z,4.68
2022-08-30T13:21:56.361Z,4.80
2022-08-30T13:26:42.386Z,4.63
2022-08-30T13:31:33.172Z,4.50
2022-08-30T13:41:03.526Z,5.30
2022-08-30T13:45:49.214Z,4.85
2022-08-30T13:50:37.274Z,5.28
2022-08-30T13:55:22.486Z,5.10
2022-08-30T14:00:10.371Z,5.47
2022-08-30T14:05:00.949Z,5.20
2022-08-30T14:09:52.096Z,4.50
2022-08-30T14:14:43.122Z,4.80
2022-08-30T14:19:29.230Z,5.07
2022-08-30T14:24:15.100Z,5.10
2022-08-30T14:29:10.583Z,4.78
2022-08-30T14:33:55.914Z,5.65
2022-08-30T14:38:42.731Z,4.75
2022-08-30T14:43:27.888Z,5.45
2022-08-30T14:48:16.304Z,5.72
2022-08-30T14:53:01.419Z,5.28
2022-08-30T14:57:46.789Z,4.47
2022-08-30T15:02:31.831Z,5.85
2022-08-30T15:07:19.782Z,5.28
2022-08-30T15:12:06.319Z,5.40
2022-08-30T15:16:53.255Z,5.78
2022-08-30T15:21:41.075Z,6.18
2022-08-30T15:26:29.799Z,5.50
2022-08-30T15:31:14.937Z,6.03
2022-08-30T15:36:03.351Z,5.57
2022-08-30T15:40:52.837Z,5.70
2022-08-30T15:45:41.144Z,5.22
2022-08-30T15:50:26.536Z,6.00
2022-08-30T15:55:12.719Z,6.30
2022-08-30T15:59:57.748Z,5.63
2022-08-30T16:04:47.375Z,5.40
2022-08-30T16:09:33.738Z,5.78
2022-08-30T16:14:19.209Z,5.60
2022-08-30T16:19:04.283Z,5.30
2022-08-30T16:23:52.734Z,5.40
2022-08-30T16:28:38.391Z,5.38
2022-08-30T16:33:25.019Z,5.90
2022-08-30T16:38:10.074Z,6.05
2022-08-30T16:42:57.942Z,6.28
2022-08-30T16:47:44.737Z,5.78
2022-08-30T16:52:30.082Z,5.68
2022-08-30T16:57:15.219Z,5.78
2022-08-30T17:02:04.289Z,5.55
2022-08-30T17:06:50.250Z,5.65
2022-08-30T17:11:36.033Z,6.22
2022-08-30T17:16:28.170Z,5.90
2022-08-30T17:21:16.727Z,16.52
2022-08-30T17:26:02.105Z,5.28
2022-08-30T17:30:48.068Z,5.20
2022-08-30T17:35:36.060Z,5.93
2022-08-30T17:40:24.262Z,5.72
2022-08-30T17:45:13.166Z,6.13
2022-08-30T17:49:58.948Z,6.43
2022-08-30T17:54:44.896Z,6.65
2022-08-30T17:59:32.966Z,6.25
2022-08-30T18:09:25.311Z,6.38
2022-08-30T18:14:12.890Z,6.07
2022-08-30T18:19:01.477Z,6.95
2022-08-30T18:23:47.328Z,6.28
2022-08-30T18:28:33.104Z,6.47
2022-08-30T18:33:19.941Z,6.50
2022-08-30T18:38:11.033Z,7.07
2022-08-30T18:42:56.179Z,6.97
2022-08-30T18:47:42.337Z,6.78
2022-08-30T18:52:28.378Z,6.88
2022-08-30T18:57:17.039Z,7.47
2022-08-30T19:02:02.154Z,6.47
2022-08-30T19:06:47.710Z,6.47
2022-08-30T19:11:32.935Z,6.57
2022-08-30T19:16:21.293Z,6.18
2022-08-30T19:21:06.604Z,6.53
2022-08-30T19:26:00.659Z,7.38
2022-08-30T19:30:46.568Z,7.38
2022-08-30T19:35:34.678Z,7.40
2022-08-30T19:40:22.581Z,7.53
2022-08-30T19:45:09.125Z,7.43
2022-08-30T19:49:54.199Z,7.47
2022-08-30T19:54:42.390Z,7.93
2022-08-30T19:59:28.364Z,7.15
2022-08-30T20:04:15.922Z,7.13
2022-08-30T20:09:01.071Z,7.03
2022-08-30T20:13:49.082Z,7.78
2022-08-30T20:18:35.310Z,7.70
2022-08-30T20:23:25.244Z,8.05
2022-08-30T20:24:26.591Z,6.85
2022-08-30T20:28:10.636Z,7.57
2022-08-30T20:32:59.038Z,8.02
2022-08-30T20:37:46.509Z,9.07
2022-08-30T20:42:32.216Z,8.60
2022-08-30T20:47:17.937Z,8.38
2022-08-30T20:52:06.978Z,8.75
2022-08-30T21:01:40.118Z,9.45
2022-08-30T21:06:26.215Z,9.30
2022-08-30T21:11:14.150Z,9.15
2022-08-30T21:16:03.510Z,8.65
2022-08-30T21:20:49.258Z,9.68
2022-08-30T21:25:34.743Z,9.13
2022-08-30T21:30:22.968Z,8.05
2022-08-30T21:35:21.730Z,8.18
2022-08-30T21:40:08.192Z,8.48
2022-08-30T21:44:53.825Z,8.13
2022-08-30T21:49:44.195Z,7.63
2022-08-30T21:54:31.273Z,8.18
2022-08-30T21:59:18.425Z,8.43
2022-08-30T22:04:05.399Z,8.52
2022-08-30T22:08:53.733Z,8.98
2022-08-30T22:13:40.490Z,8.82
2022-08-30T22:18:26.117Z,9.05
2022-08-30T22:23:11.165Z,8.93
2022-08-30T22:28:04.356Z,9.98
2022-08-30T22:32:49.671Z,9.00
2022-08-30T22:37:36.798Z,8.82
2022-08-30T22:42:21.827Z,9.57
2022-08-30T22:47:10.026Z,9.20
2022-08-30T22:51:55.062Z,9.73
2022-08-30T22:56:41.962Z,9.73
2022-08-30T23:01:29.362Z,10.60
2022-08-30T23:06:17.409Z,10.25
2022-08-30T23:11:02.703Z,9.80
2022-08-30T23:15:48.214Z,10.05
2022-08-30T23:20:33.413Z,10.77
2022-08-30T23:25:41.210Z,10.98
2022-08-30T23:30:40.123Z,9.98
2022-08-30T23:35:37.817Z,10.07
2022-08-30T23:40:38.831Z,10.63
2022-08-30T23:45:36.586Z,10.27
2022-08-30T23:50:34.014Z,10.60
2022-08-30T23:55:31.779Z,10.60
